Details From KEWN - Craven Co Rgnl
To KFFA - First Flight
Flight Number -
Tags Generated
Created
Modified
Stats Distance 88 nm / 163 km
Max Altitude 0 ft / 0 m
Waypoints 2
Social Downloads 1
Likes 0
Share VATSIM

Download

Looking for another format? Having issues loading an existing format? Contact us
Advertisement - Login to hide

Notes

Generated

Route

KEWN KFFA

ID Type Via Altitude Latitude Longitude Leg Dist Tot Dist Heading (true) Name
O KEWN APT - 0 ft / 0 m 35.07704˚ -77.04787˚ - 0 nm - -
O KFFA APT - 0 ft / 0 m 36.02058˚ -75.66842˚ 88 nm 88 nm 50° / 50° First Flight

Altitude Profile

Advertisement - Login to hide

KEWN

Details ICAO KEWN (EWN)
Name Craven Co Rgnl
Region United States
Timezone America/New_York (UTC-5.0)
Stats Elevation 18 ft / 5 m (AMSL)
Location 35.073096° -77.042880°
Runways 2
Magnetic Variation 10.086° W

METAR

KEWN 181954Z VRB04KT 10SM CLR 19/11 A3006 RMK AO2 SLP179 T01890106

Decode

TAF

TAF KEWN 181738Z 1818/1918 VRB05KT P6SM SCT025 FM182300 00000KT P6SM SCT200 FM190700 00000KT 2SM BR SCT007 FM191300 26006KT P6SM SCT250

Decode

Departure Runways

ID Width Length Bearing (true) Bearing (mag) Surface Threshold Offset Overrun Length
04 150 ft / 46 m 6,008 ft / 1,831 m 30.60° 40.69° Asphalt 0 ft / 0 m 0 ft / 0 m
13 150 ft / 46 m 3,999 ft / 1,219 m 128.07° 138.16° Asphalt 0 ft / 0 m 0 ft / 0 m
22 150 ft / 46 m 6,008 ft / 1,831 m 210.61° 220.70° Asphalt 0 ft / 0 m 0 ft / 0 m
31 150 ft / 46 m 3,999 ft / 1,219 m 308.07° 318.16° Asphalt 0 ft / 0 m 0 ft / 0 m

KFFA

Details ICAO KFFA (FFA)
Name First Flight
Region United States
Timezone America/New_York (UTC-5.0)
Stats Elevation 13 ft / 4 m (AMSL)
Location 36.020044° -75.669806°
Runways 2
Magnetic Variation 11.035° W

METAR

KFFA 182020Z AUTO 00000KT 10SM CLR 14/06 A3005 RMK AO2 T01420057

Decode

TAF

Not found

Destination Runways

ID Width Length Bearing (true) Bearing (mag) Surface Threshold Offset Overrun Length
01R 20 ft / 6 m 867 ft / 264 m 8.00° 19.03° Asphalt 0 ft / 0 m 0 ft / 0 m
02 60 ft / 18 m 3,006 ft / 916 m 23.89° 34.92° Asphalt 0 ft / 0 m 0 ft / 0 m
19L 20 ft / 6 m 867 ft / 264 m 188.00° 199.03° Asphalt 0 ft / 0 m 0 ft / 0 m
20 60 ft / 18 m 3,006 ft / 916 m 203.89° 214.92° Asphalt 0 ft / 0 m 0 ft / 0 m